Saint Germain, WI

10:36 PM CST on March 05, 2015 (GMT -0600)
Ross Lake | Change Station
CLOSE
Current Station
Personal Weather Station
Location: Woodruff, WI
Elevation: 1640 ft
Nearby Weather Stations

Elev 1640 ft 45.96 °N, 89.60 °W | Updated 6 minutes ago

Clear
Clear
1.0 °F
Feels Like 1 °F
N
2.0
Wind Variable Wind from SE
Gusts 4.0 mph

Today
High -- | Low -- °F
--% Chance of Precip.
Yesterday
High -- | Low -- °F
Precip. -- in
6:29 AM 5:49 PM
Full, 100% visible
Pressure 30.26 in
Visibility 10.0 miles
Clouds Clear
Windchill 1 °F
Dew Point -41 °F
Humidity 11%
Rainfall in
Snow Depth Not available.
UV 0 out of 12
Pollen .40 out of 12
Air Quality Not available.
Flu Activity Not available.
METAR KEGV 060410Z AUTO 00000KT 10SM CLR M18/M25 A3026 RMK AO2 T11761254

More Conditions Fewer Conditions

Pressure 30.26 in
Visibility 10.0 miles
Clouds Clear
Windchill 1 °F
Dew Point -41 °F
Humidity 11%
Rainfall in
Snow Depth Not available.
UV 0 out of 12
Pollen .40 out of 12
Air Quality Not available.
Flu Activity Not available.
METAR KEGV 060410Z AUTO 00000KT 10SM CLR M18/M25 A3026 RMK AO2 T11761254

More Conditions Fewer Conditions

10-Day Weather Forecast

Almanac

Astronomy

Mar. 05, 2015 Rise Set
Actual Time
Civil Twilight
Nautical Twilight
Astronomical Twilight
Moon
Length of Visible Light
Length of Day
Tomorrow will be .
, % of the Moon is Illuminated

Today's Extremes

State Highs State Lows

Community

WunderPhotos

Upload Photos

1,803,178 photos uploaded!

WunderBlogs® & News

Nearby

Air Quality

  Air Quality AQ Index Pollutant
Not available.

Snow Depth

Station Depth Elevation

Earthquake Activity

City Distance Mag. Time & Date
Minimum magnitude displayed is 2.5.

Coastal Water Temperatures

Place Temperature

Nearby Weather Stations